Time;durP1;ratioP1;P1;durP2;ratioP2;P2;SDS_P1;SDS_P2;PMS_P1;PMS_P2;Temp;Humidity;BMP_temperature;BMP_pressure;BME280_temperature;BME280_humidity;BME280_pressure;Samples;Min_cycle;Max_cycle;Signal;HPM_P1;HPM_P2
2023/12/24 00:01:34;;;;;;;21.92;5.90;;;8.70;99.90;;;;;;5089515;28;20032;-45
2023/12/24 00:04:00;;;;;;;18.40;5.50;;;8.80;99.90;;;;;;5089730;28;20082;-46
2023/12/24 00:06:25;;;;;;;19.15;5.72;;;8.80;99.90;;;;;;5088561;28;20039;-46
2023/12/24 00:08:51;;;;;;;14.43;5.45;;;8.70;99.90;;;;;;5088910;28;20035;-48
2023/12/24 00:11:17;;;;;;;19.63;5.30;;;8.80;99.90;;;;;;5089366;28;20111;-45
2023/12/24 00:13:42;;;;;;;14.50;5.13;;;8.70;99.90;;;;;;5089045;28;20699;-47
2023/12/24 00:16:08;;;;;;;18.75;5.63;;;8.60;99.90;;;;;;5089221;28;21403;-49
2023/12/24 00:18:33;;;;;;;17.98;5.35;;;8.60;99.90;;;;;;5093715;28;20393;-45
2023/12/24 00:20:59;;;;;;;17.75;5.22;;;8.70;99.90;;;;;;5088828;28;20051;-45
2023/12/24 00:23:24;;;;;;;26.20;6.03;;;8.70;99.90;;;;;;5092719;28;20123;-45
2023/12/24 00:25:50;;;;;;;19.75;5.68;;;8.60;99.90;;;;;;5093887;28;20097;-45
2023/12/24 00:28:16;;;;;;;18.85;5.20;;;8.90;99.90;;;;;;5093141;28;21819;-46
2023/12/24 00:30:41;;;;;;;16.40;5.15;;;8.70;99.90;;;;;;5092874;28;20043;-46
2023/12/24 00:33:07;;;;;;;14.57;4.57;;;8.70;99.90;;;;;;5093636;28;20059;-45
2023/12/24 00:35:34;;;;;;;19.73;5.38;;;8.70;99.90;;;;;;5094267;28;20089;-48
2023/12/24 00:37:59;;;;;;;18.50;5.20;;;8.80;99.90;;;;;;5093131;28;20040;-46
2023/12/24 00:40:25;;;;;;;16.08;4.50;;;8.60;99.90;;;;;;5092264;28;20036;-45
2023/12/24 00:42:51;;;;;;;16.15;4.68;;;8.80;99.90;;;;;;5090451;28;20044;-45
2023/12/24 00:45:17;;;;;;;13.90;4.75;;;8.70;99.90;;;;;;5092032;28;20504;-45
2023/12/24 00:47:42;;;;;;;20.20;5.05;;;8.80;99.90;;;;;;5093265;28;20032;-46
2023/12/24 00:50:08;;;;;;;19.75;5.07;;;8.80;99.90;;;;;;5093452;28;20047;-47
2023/12/24 00:52:35;;;;;;;15.65;4.47;;;8.80;99.90;;;;;;5092607;28;20051;-45
2023/12/24 00:55:01;;;;;;;14.75;4.47;;;8.90;99.90;;;;;;5093009;28;20032;-45
2023/12/24 00:57:26;;;;;;;16.45;4.45;;;8.90;99.90;;;;;;5092213;28;20122;-45
2023/12/24 00:59:52;;;;;;;13.63;4.60;;;8.90;99.90;;;;;;5092149;28;20047;-46
2023/12/24 01:02:17;;;;;;;13.13;4.78;;;8.80;99.90;;;;;;5092053;28;20080;-47
2023/12/24 01:04:43;;;;;;;14.32;4.03;;;9.20;99.90;;;;;;5094144;28;20054;-45
2023/12/24 01:07:09;;;;;;;17.52;5.00;;;8.90;99.90;;;;;;5092103;28;20087;-45
2023/12/24 01:09:37;;;;;;;14.63;4.15;;;8.80;99.90;;;;;;5092246;28;20048;-45
2023/12/24 01:12:03;;;;;;;17.83;4.43;;;9.00;99.90;;;;;;5091294;28;20077;-44
2023/12/24 01:14:29;;;;;;;14.15;3.80;;;8.80;99.90;;;;;;5091855;28;20485;-45
2023/12/24 01:16:54;;;;;;;13.57;4.25;;;9.20;99.90;;;;;;5091762;28;20043;-45
2023/12/24 01:19:20;;;;;;;12.77;3.72;;;8.80;99.90;;;;;;5091854;28;20047;-45
2023/12/24 01:21:46;;;;;;;15.57;4.15;;;9.10;99.90;;;;;;5094696;28;20385;-46
2023/12/24 01:24:12;;;;;;;12.18;3.70;;;9.00;99.90;;;;;;5092043;28;20044;-45
2023/12/24 01:26:39;;;;;;;13.93;3.92;;;8.80;99.90;;;;;;5073153;28;20109;-45
2023/12/24 01:29:04;;;;;;;9.00;3.67;;;9.00;99.90;;;;;;5090913;28;20071;-46
2023/12/24 01:31:30;;;;;;;16.02;3.67;;;9.00;99.90;;;;;;5088797;28;20079;-47
2023/12/24 01:33:55;;;;;;;18.55;4.18;;;8.90;99.90;;;;;;5091060;28;20040;-46
2023/12/24 01:36:21;;;;;;;13.07;3.80;;;8.90;99.90;;;;;;5091435;28;20044;-46
2023/12/24 01:38:47;;;;;;;13.52;4.25;;;8.90;99.90;;;;;;5091276;28;20071;-45
2023/12/24 01:41:13;;;;;;;13.45;4.30;;;8.90;99.90;;;;;;5091510;28;20032;-45
2023/12/24 01:43:43;;;;;;;12.55;3.83;;;9.00;99.90;;;;;;5090802;28;20458;-45
2023/12/24 01:46:20;;;;;;;14.88;3.97;;;;;;;;;;5090861;28;20505;-46
2023/12/24 01:48:48;;;;;;;11.38;3.85;;;8.90;99.90;;;;;;5091884;28;20131;-47
2023/12/24 01:51:15;;;;;;;11.98;3.53;;;;;;;;;;5073606;28;20080;-47
2023/12/24 01:53:41;;;;;;;14.35;3.50;;;;;;;;;;5090910;28;20468;-46
2023/12/24 01:56:08;;;;;;;9.63;3.15;;;;;;;;;;5088760;28;20068;-49
2023/12/24 01:58:34;;;;;;;9.73;3.28;;;;;;;;;;5091458;28;20056;-47
2023/12/24 02:01:01;;;;;;;13.65;3.53;;;;;;;;;;5090874;28;20044;-46
2023/12/24 02:03:27;;;;;;;14.32;3.50;;;;;;;;;;5090933;28;20051;-45
2023/12/24 02:05:53;;;;;;;15.38;4.00;;;;;;;;;;5072113;28;20124;-47
2023/12/24 02:08:21;;;;;;;14.00;3.53;;;;;;;;;;5090585;28;20445;-46
2023/12/24 02:10:48;;;;;;;10.55;3.15;;;;;;;;;;5089794;28;20040;-46
2023/12/24 02:13:14;;;;;;;11.02;3.20;;;;;;;;;;5088944;28;20457;-45
2023/12/24 02:15:40;;;;;;;11.40;3.53;;;;;;;;;;5089734;28;20039;-47
2023/12/24 02:18:07;;;;;;;10.98;3.20;;;;;;;;;;5089935;28;20044;-46
2023/12/24 02:20:33;;;;;;;8.68;3.40;;;;;;;;;;5089539;28;20085;-46
2023/12/24 02:22:59;;;;;;;10.25;3.50;;;;;;;;;;5087683;28;20067;-45
2023/12/24 02:25:25;;;;;;;13.55;3.33;;;9.40;99.90;;;;;;5090422;28;20071;-46
2023/12/24 02:28:14;;;;;;;11.25;3.30;;;8.90;99.90;;;;;;5092387;28;20079;-46
2023/12/24 02:30:43;;;;;;;13.95;3.70;;;8.90;99.90;;;;;;5088831;28;20139;-46
2023/12/24 02:33:11;;;;;;;8.23;3.35;;;9.00;99.90;;;;;;5088270;28;20047;-47
2023/12/24 02:35:38;;;;;;;8.07;3.08;;;8.90;99.90;;;;;;5089605;28;20032;-47
2023/12/24 02:38:04;;;;;;;8.63;3.08;;;9.10;99.90;;;;;;5089547;28;20110;-46
2023/12/24 02:40:30;;;;;;;11.63;3.80;;;9.10;99.90;;;;;;5071911;28;20446;-46
2023/12/24 02:42:55;;;;;;;10.65;3.67;;;9.30;99.90;;;;;;5087578;28;20409;-47
2023/12/24 02:45:21;;;;;;;8.73;3.50;;;8.80;99.90;;;;;;5089542;28;20048;-46
2023/12/24 02:47:46;;;;;;;14.18;3.83;;;8.90;99.90;;;;;;5089302;28;20028;-46
2023/12/24 02:50:12;;;;;;;9.90;4.10;;;8.90;99.90;;;;;;5089476;28;20523;-45
2023/12/24 02:52:38;;;;;;;10.07;4.03;;;;;;;;;;5070795;28;20044;-46
2023/12/24 02:55:04;;;;;;;10.07;4.13;;;8.90;99.90;;;;;;5086621;28;20489;-46
2023/12/24 02:57:29;;;;;;;9.98;4.47;;;8.90;99.90;;;;;;5088300;28;20070;-46
2023/12/24 02:59:55;;;;;;;10.48;4.65;;;8.90;99.90;;;;;;5087018;28;20137;-47
2023/12/24 03:02:21;;;;;;;10.65;4.57;;;8.90;99.90;;;;;;5088954;28;20047;-45
2023/12/24 03:04:46;;;;;;;9.10;4.72;;;8.90;99.90;;;;;;5089559;28;20032;-45
2023/12/24 03:07:12;;;;;;;9.45;4.43;;;8.90;99.90;;;;;;5088011;28;20040;-47
2023/12/24 03:09:38;;;;;;;13.68;4.60;;;8.90;99.90;;;;;;5071031;28;20050;-46
2023/12/24 03:12:05;;;;;;;9.27;3.92;;;9.00;99.90;;;;;;5088657;28;20127;-47
2023/12/24 03:14:30;;;;;;;13.50;5.00;;;8.90;99.90;;;;;;5087047;28;20047;-46
2023/12/24 03:16:56;;;;;;;10.05;4.80;;;8.90;99.90;;;;;;5087548;28;20036;-46
2023/12/24 03:19:21;;;;;;;11.90;4.32;;;8.90;99.90;;;;;;5089171;28;20043;-45
2023/12/24 03:21:47;;;;;;;11.52;4.50;;;9.00;99.90;;;;;;5086512;28;20440;-46
2023/12/24 03:24:13;;;;;;;16.23;4.72;;;9.00;99.90;;;;;;5089623;28;20044;-47
2023/12/24 03:26:38;;;;;;;8.15;4.20;;;8.90;99.90;;;;;;5086944;28;20036;-46
2023/12/24 03:29:05;;;;;;;9.57;4.25;;;9.00;99.90;;;;;;5087212;28;20040;-46
2023/12/24 03:31:30;;;;;;;7.70;4.15;;;9.00;99.90;;;;;;5088933;28;20059;-46
2023/12/24 03:33:56;;;;;;;14.20;4.70;;;9.00;99.90;;;;;;5087498;28;20400;-46
2023/12/24 03:36:22;;;;;;;15.23;4.60;;;8.90;99.90;;;;;;5087818;28;20047;-45
2023/12/24 03:38:48;;;;;;;6.05;3.83;;;9.00;99.90;;;;;;5088896;28;20543;-46
2023/12/24 03:41:14;;;;;;;7.25;4.10;;;9.00;99.90;;;;;;5090364;28;20416;-46
2023/12/24 03:43:40;;;;;;;9.68;3.60;;;8.90;99.90;;;;;;5088577;28;20040;-45
2023/12/24 03:46:06;;;;;;;7.72;3.60;;;9.00;99.90;;;;;;5088173;28;20085;-45
2023/12/24 03:48:32;;;;;;;9.32;3.33;;;9.00;99.90;;;;;;5087158;28;20043;-46
2023/12/24 03:50:58;;;;;;;10.63;3.95;;;9.10;99.90;;;;;;5088599;28;20032;-45
2023/12/24 03:53:24;;;;;;;10.88;4.20;;;9.00;99.90;;;;;;5087707;28;20055;-47
2023/12/24 03:55:49;;;;;;;8.23;3.35;;;9.10;99.90;;;;;;5088056;28;20064;-48
2023/12/24 03:58:15;;;;;;;8.07;3.65;;;9.00;99.90;;;;;;5092387;28;20069;-45
2023/12/24 04:00:41;;;;;;;7.65;3.40;;;9.10;99.90;;;;;;5092012;28;20123;-46
2023/12/24 04:03:06;;;;;;;7.25;3.70;;;9.10;99.90;;;;;;5092107;28;20048;-46
2023/12/24 04:05:32;;;;;;;9.90;3.83;;;9.00;99.90;;;;;;5093973;28;20449;-47
2023/12/24 04:07:58;;;;;;;8.85;3.45;;;9.10;99.90;;;;;;5090716;28;20122;-46
2023/12/24 04:10:23;;;;;;;6.28;2.90;;;9.10;99.90;;;;;;5075262;28;20097;-46
2023/12/24 04:12:49;;;;;;;7.60;3.28;;;9.10;99.90;;;;;;5074768;28;20048;-47
2023/12/24 04:15:14;;;;;;;5.25;2.95;;;9.10;99.90;;;;;;5091974;28;20040;-47
2023/12/24 04:17:40;;;;;;;5.80;2.92;;;9.10;99.90;;;;;;5091817;28;20043;-47
2023/12/24 04:20:06;;;;;;;6.85;2.85;;;9.10;99.90;;;;;;5092293;28;20036;-45
2023/12/24 04:22:32;;;;;;;5.60;2.78;;;9.20;99.90;;;;;;5091508;28;20040;-46
2023/12/24 04:24:58;;;;;;;4.95;2.90;;;9.30;99.90;;;;;;5091977;28;20390;-46
2023/12/24 04:27:24;;;;;;;6.25;2.50;;;9.40;99.90;;;;;;5091674;28;20048;-46
2023/12/24 04:29:51;;;;;;;6.57;2.60;;;9.00;99.90;;;;;;5090827;28;20100;-47
2023/12/24 04:32:18;;;;;;;3.85;2.55;;;9.20;99.90;;;;;;5094803;28;20070;-45
2023/12/24 04:34:44;;;;;;;3.50;2.28;;;9.20;99.90;;;;;;5093706;28;20047;-47
2023/12/24 04:37:10;;;;;;;4.03;2.17;;;9.20;99.90;;;;;;5091944;28;20157;-46
2023/12/24 04:39:36;;;;;;;5.93;2.47;;;9.20;99.90;;;;;;5090524;28;20055;-46
2023/12/24 04:42:01;;;;;;;5.65;2.45;;;9.50;99.90;;;;;;5089595;28;20040;-45
2023/12/24 04:44:27;;;;;;;3.72;2.25;;;;;;;;;;5091853;28;20047;-46
2023/12/24 04:46:53;;;;;;;4.80;2.30;;;9.30;99.90;;;;;;5090097;28;20036;-47
2023/12/24 04:49:19;;;;;;;3.13;2.03;;;;;;;;;;5089229;28;20485;-46
2023/12/24 04:51:45;;;;;;;6.28;2.05;;;9.10;99.90;;;;;;5092403;28;20036;-47
2023/12/24 04:54:11;;;;;;;2.78;1.90;;;9.20;99.90;;;;;;5093937;28;20481;-46
2023/12/24 04:56:37;;;;;;;2.15;1.95;;;9.30;99.90;;;;;;5088876;28;20123;-49
2023/12/24 04:59:02;;;;;;;2.45;1.90;;;9.20;99.90;;;;;;5091324;28;20060;-46
2023/12/24 05:01:28;;;;;;;4.00;2.00;;;9.30;99.90;;;;;;5091214;28;20032;-46
2023/12/24 05:03:54;;;;;;;3.95;1.60;;;9.30;99.90;;;;;;5090705;28;20040;-47
2023/12/24 05:06:21;;;;;;;1.85;1.70;;;9.30;99.90;;;;;;5091258;28;20051;-46
2023/12/24 05:08:46;;;;;;;3.75;1.90;;;9.30;99.90;;;;;;5089938;28;20066;-46
2023/12/24 05:11:12;;;;;;;5.72;1.90;;;9.40;99.90;;;;;;5091149;28;20040;-46
2023/12/24 05:13:38;;;;;;;5.15;1.63;;;9.40;99.90;;;;;;5090755;28;20032;-46
2023/12/24 05:16:05;;;;;;;1.85;1.60;;;9.30;99.90;;;;;;5073286;28;20386;-47
2023/12/24 05:18:31;;;;;;;3.30;1.40;;;9.40;99.90;;;;;;5089691;28;20050;-46
2023/12/24 05:20:57;;;;;;;1.98;1.50;;;9.40;99.90;;;;;;5091022;28;20040;-46
2023/12/24 05:23:24;;;;;;;2.95;1.40;;;9.30;99.90;;;;;;5089328;28;20043;-45
2023/12/24 05:25:50;;;;;;;3.60;1.50;;;9.40;99.90;;;;;;5091111;28;20261;-46
2023/12/24 05:28:18;;;;;;;3.30;1.60;;;9.40;99.90;;;;;;5087450;28;20032;-46
2023/12/24 05:30:47;;;;;;;4.97;1.60;;;9.50;99.90;;;;;;5089956;28;20431;-48
2023/12/24 05:33:13;;;;;;;2.25;1.50;;;9.50;99.90;;;;;;5091058;28;20445;-47
2023/12/24 05:35:38;;;;;;;2.55;1.67;;;9.40;99.90;;;;;;5091974;28;20036;-46
2023/12/24 05:38:04;;;;;;;2.70;1.77;;;9.40;99.90;;;;;;5091300;28;20398;-45
2023/12/24 05:40:30;;;;;;;2.13;1.45;;;9.50;99.90;;;;;;5090898;28;20071;-46
2023/12/24 05:42:56;;;;;;;1.90;1.50;;;9.60;99.90;;;;;;5092094;28;20042;-46
2023/12/24 05:45:21;;;;;;;2.88;1.63;;;9.50;99.90;;;;;;5089359;28;20142;-46
2023/12/24 05:47:47;;;;;;;2.15;1.80;;;9.50;99.90;;;;;;5090707;28;20038;-47
2023/12/24 05:50:13;;;;;;;2.28;2.08;;;9.50;99.90;;;;;;5092762;28;20039;-45
2023/12/24 05:52:41;;;;;;;2.72;2.10;;;9.50;99.90;;;;;;5090429;28;20036;-46
2023/12/24 05:55:07;;;;;;;;;;;9.60;99.90;;;;;;5089989;28;20485;-47
2023/12/24 05:57:33;;;;;;;3.03;2.42;;;9.60;99.90;;;;;;5090843;28;20295;-46
2023/12/24 05:59:59;;;;;;;4.43;2.60;;;9.60;99.90;;;;;;5089705;28;20383;-45
2023/12/24 06:02:25;;;;;;;3.53;2.33;;;9.70;99.90;;;;;;5090716;28;20097;-48
2023/12/24 06:04:50;;;;;;;3.28;2.40;;;9.60;99.90;;;;;;5091070;28;20048;-47
2023/12/24 06:07:16;;;;;;;3.88;2.67;;;9.60;99.90;;;;;;5090591;28;20040;-46
2023/12/24 06:09:41;;;;;;;3.22;2.60;;;9.70;99.90;;;;;;5090997;28;20451;-46
2023/12/24 06:12:07;;;;;;;4.03;2.60;;;9.60;99.90;;;;;;5076705;28;20110;-45
2023/12/24 06:14:33;;;;;;;3.97;2.72;;;9.70;99.90;;;;;;5090891;28;20040;-48
2023/12/24 06:16:59;;;;;;;4.38;2.75;;;9.80;99.90;;;;;;5090630;28;20044;-45
2023/12/24 06:19:25;;;;;;;7.68;3.05;;;9.80;99.90;;;;;;5090450;28;20071;-48
2023/12/24 06:21:51;;;;;;;6.32;3.13;;;9.80;99.90;;;;;;5088419;28;20074;-47
2023/12/24 06:24:20;;;;;;;4.53;3.03;;;9.80;99.90;;;;;;5072300;28;20040;-48
2023/12/24 06:26:47;;;;;;;4.63;3.33;;;9.80;99.90;;;;;;5073577;28;20051;-46
2023/12/24 06:29:13;;;;;;;5.30;3.38;;;9.70;99.90;;;;;;5089652;28;20397;-46
2023/12/24 06:31:38;;;;;;;6.60;3.83;;;9.80;99.90;;;;;;5090354;28;20033;-49
2023/12/24 06:34:04;;;;;;;5.90;3.63;;;9.80;99.90;;;;;;5090338;28;20032;-45
2023/12/24 06:36:30;;;;;;;7.30;4.10;;;9.70;99.90;;;;;;5089734;28;20490;-45
2023/12/24 06:38:55;;;;;;;8.48;4.47;;;9.90;99.90;;;;;;5091344;28;20093;-46
2023/12/24 06:41:22;;;;;;;10.30;5.13;;;9.80;99.90;;;;;;5089944;28;20059;-46
2023/12/24 06:43:48;;;;;;;6.88;4.38;;;9.80;99.90;;;;;;5092509;28;20040;-46
2023/12/24 06:46:14;;;;;;;9.80;4.38;;;9.90;99.90;;;;;;5091732;28;20098;-47
2023/12/24 06:48:39;;;;;;;11.07;4.80;;;9.80;99.90;;;;;;5090399;28;20028;-45
2023/12/24 06:51:05;;;;;;;10.10;4.50;;;9.90;99.90;;;;;;5090636;28;20032;-47
2023/12/24 06:53:31;;;;;;;11.77;4.80;;;9.90;99.90;;;;;;5089622;28;20131;-45
2023/12/24 06:55:56;;;;;;;12.02;4.97;;;10.00;99.90;;;;;;5090873;28;20036;-46
2023/12/24 06:58:22;;;;;;;12.95;4.97;;;9.90;99.90;;;;;;5089581;28;20036;-46
2023/12/24 07:00:48;;;;;;;13.90;5.07;;;9.90;99.90;;;;;;5089836;28;20044;-46
2023/12/24 07:03:14;;;;;;;12.60;4.90;;;10.00;99.90;;;;;;5089789;28;20047;-47
2023/12/24 07:05:40;;;;;;;11.20;5.18;;;10.00;99.90;;;;;;5089927;28;20151;-46
2023/12/24 07:08:07;;;;;;;14.20;5.70;;;10.00;99.90;;;;;;5089118;28;20642;-46
2023/12/24 07:10:33;;;;;;;12.30;5.53;;;10.00;99.90;;;;;;5089958;28;20113;-46
2023/12/24 07:12:59;;;;;;;12.35;5.60;;;;;;;;;;5088796;28;20477;-46
2023/12/24 07:15:25;;;;;;;16.27;6.50;;;;;;;;;;5088579;28;20048;-48
2023/12/24 07:17:51;;;;;;;14.18;6.20;;;;;;;;;;5088633;28;20046;-45
2023/12/24 07:20:17;;;;;;;18.02;6.18;;;10.10;99.90;;;;;;5086668;28;20086;-46
2023/12/24 07:22:43;;;;;;;14.43;5.82;;;10.00;99.90;;;;;;5087751;28;20036;-47
2023/12/24 07:25:10;;;;;;;14.23;6.45;;;10.00;99.90;;;;;;5088993;28;20392;-45
2023/12/24 07:27:35;;;;;;;13.55;6.20;;;10.10;99.90;;;;;;5087317;28;20035;-46
2023/12/24 07:30:01;;;;;;;17.83;6.32;;;10.20;99.90;;;;;;5088997;28;20036;-47
2023/12/24 07:32:26;;;;;;;15.90;6.40;;;10.10;99.90;;;;;;5086849;28;20043;-48
2023/12/24 07:34:52;;;;;;;15.98;6.68;;;10.10;99.90;;;;;;5088372;28;20044;-47
2023/12/24 07:37:18;;;;;;;17.80;6.72;;;10.10;99.90;;;;;;5088075;28;20127;-48
2023/12/24 07:39:44;;;;;;;18.30;6.90;;;10.10;99.90;;;;;;5072077;28;20078;-46
2023/12/24 07:42:09;;;;;;;18.13;6.28;;;10.20;99.90;;;;;;5091623;28;20074;-46
2023/12/24 07:44:35;;;;;;;16.95;6.63;;;10.10;99.90;;;;;;5087011;28;20127;-46
2023/12/24 07:47:01;;;;;;;17.20;6.13;;;10.30;99.90;;;;;;5087087;28;20044;-45
2023/12/24 07:49:26;;;;;;;15.93;5.72;;;10.20;99.90;;;;;;5087073;28;20131;-45
2023/12/24 07:51:52;;;;;;;16.42;5.82;;;10.20;99.90;;;;;;5087540;28;20116;-46
2023/12/24 07:54:18;;;;;;;19.45;6.07;;;10.20;99.90;;;;;;5088050;28;20072;-46
2023/12/24 07:56:44;;;;;;;19.08;5.70;;;10.20;99.90;;;;;;5088485;28;20056;-47
2023/12/24 07:59:10;;;;;;;16.05;6.25;;;10.20;99.90;;;;;;5088785;28;20478;-47
2023/12/24 08:01:38;;;;;;;15.75;6.60;;;10.30;99.90;;;;;;5087785;28;20139;-48
2023/12/24 08:04:04;;;;;;;17.15;6.35;;;10.30;99.90;;;;;;5087553;28;20044;-46
2023/12/24 08:06:30;;;;;;;20.27;6.93;;;10.20;99.90;;;;;;5087006;28;20036;-46
2023/12/24 08:08:57;;;;;;;24.73;7.15;;;10.30;99.90;;;;;;5087855;28;20131;-48
2023/12/24 08:11:23;;;;;;;16.77;6.57;;;10.30;99.90;;;;;;5069316;28;20040;-47
2023/12/24 08:13:48;;;;;;;20.85;7.38;;;10.20;99.90;;;;;;5087339;28;20055;-46
2023/12/24 08:16:14;;;;;;;21.27;7.38;;;10.40;99.90;;;;;;5087747;28;20497;-46
2023/12/24 08:18:39;;;;;;;19.33;8.40;;;10.30;99.90;;;;;;5087240;28;20036;-46
2023/12/24 08:21:10;;;;;;;20.65;7.47;;;10.30;99.90;;;;;;5088159;28;20039;-46
2023/12/24 08:23:36;;;;;;;26.45;8.02;;;10.40;99.90;;;;;;5088213;28;20083;-46
2023/12/24 08:26:03;;;;;;;21.98;7.20;;;10.40;99.90;;;;;;5086708;28;20134;-47
2023/12/24 08:28:28;;;;;;;23.98;7.75;;;10.40;99.90;;;;;;5087869;28;20059;-46
2023/12/24 08:30:54;;;;;;;22.75;7.10;;;10.40;99.90;;;;;;5088125;28;20036;-47
2023/12/24 08:33:19;;;;;;;28.10;7.72;;;10.40;99.90;;;;;;5088227;28;20052;-46
2023/12/24 08:35:45;;;;;;;18.38;7.18;;;10.50;99.90;;;;;;5086741;28;20057;-47
2023/12/24 08:38:11;;;;;;;21.85;6.40;;;10.50;99.90;;;;;;5087079;28;20314;-46
2023/12/24 08:40:37;;;;;;;22.75;7.00;;;10.50;99.90;;;;;;5086814;28;20058;-47
2023/12/24 08:43:03;;;;;;;21.85;6.78;;;10.50;99.90;;;;;;5089675;28;20046;-46
2023/12/24 08:45:28;;;;;;;19.90;6.45;;;10.40;99.90;;;;;;5092889;28;20062;-45
2023/12/24 08:47:54;;;;;;;20.95;6.53;;;10.50;99.90;;;;;;5092355;28;20044;-47
2023/12/24 08:50:21;;;;;;;16.85;6.45;;;10.60;99.90;;;;;;5090494;28;20485;-46
2023/12/24 08:52:47;;;;;;;23.83;6.22;;;10.50;99.90;;;;;;5091960;28;20052;-48
2023/12/24 08:55:13;;;;;;;20.30;6.25;;;10.60;99.90;;;;;;5091380;28;20428;-49
2023/12/24 08:57:38;;;;;;;23.25;6.50;;;10.50;99.90;;;;;;5092485;28;20039;-46
2023/12/24 09:00:05;;;;;;;21.40;6.25;;;10.60;99.90;;;;;;5090304;28;20044;-46
2023/12/24 09:02:31;;;;;;;20.55;6.03;;;10.60;99.90;;;;;;5093673;28;20067;-46
2023/12/24 09:04:58;;;;;;;21.45;5.60;;;10.60;99.90;;;;;;5090796;28;20090;-46
2023/12/24 09:07:24;;;;;;;18.80;5.72;;;10.70;99.90;;;;;;5093576;28;20114;-47
2023/12/24 09:09:51;;;;;;;19.42;5.47;;;10.60;99.90;;;;;;5091848;28;20064;-47
2023/12/24 09:12:18;;;;;;;11.57;5.18;;;10.70;99.90;;;;;;5088693;28;20032;-46
2023/12/24 09:14:43;;;;;;;16.45;4.75;;;10.70;99.90;;;;;;5092488;28;20527;-47
2023/12/24 09:17:09;;;;;;;14.07;4.45;;;10.70;99.90;;;;;;5093450;28;20052;-48
2023/12/24 09:19:35;;;;;;;14.80;4.68;;;10.80;99.90;;;;;;5091939;28;20109;-46
2023/12/24 09:22:00;;;;;;;13.75;4.45;;;10.70;99.90;;;;;;5073960;28;20072;-46
2023/12/24 09:24:26;;;;;;;16.30;3.83;;;10.70;99.90;;;;;;5092589;28;20036;-46
2023/12/24 09:26:52;;;;;;;12.43;4.35;;;10.80;99.90;;;;;;5078744;28;20039;-47
2023/12/24 09:29:21;;;;;;;15.65;3.90;;;10.90;99.90;;;;;;5092876;28;20043;-47
2023/12/24 09:31:50;;;;;;;12.57;3.88;;;10.80;99.90;;;;;;5091846;28;20054;-50
2023/12/24 09:34:16;;;;;;;10.07;3.67;;;10.90;99.90;;;;;;5091634;28;20081;-46
2023/12/24 09:36:41;;;;;;;10.88;3.75;;;10.90;99.90;;;;;;5093645;28;20036;-47
2023/12/24 09:39:07;;;;;;;9.10;3.63;;;10.80;99.90;;;;;;5089877;28;20123;-47
2023/12/24 09:41:32;;;;;;;10.77;3.17;;;10.80;99.90;;;;;;5090812;28;20142;-46
2023/12/24 09:43:59;;;;;;;14.20;3.42;;;10.90;99.90;;;;;;5090093;28;20194;-47
2023/12/24 09:46:24;;;;;;;9.70;2.97;;;10.90;99.90;;;;;;5092080;28;20127;-46
2023/12/24 09:48:50;;;;;;;12.27;3.60;;;10.90;99.90;;;;;;5092453;28;20150;-46
2023/12/24 09:51:16;;;;;;;11.02;3.65;;;10.80;99.90;;;;;;5088957;28;20028;-46
2023/12/24 09:53:45;;;;;;;7.95;3.97;;;10.80;99.90;;;;;;5089923;28;20036;-47
2023/12/24 09:56:10;;;;;;;12.57;3.95;;;10.90;99.90;;;;;;5086402;28;20207;-46
2023/12/24 09:58:36;;;;;;;12.90;4.45;;;10.80;99.90;;;;;;5074702;28;20518;-46
2023/12/24 10:01:02;;;;;;;13.55;4.50;;;10.90;99.90;;;;;;5086218;28;20037;-46
2023/12/24 10:03:27;;;;;;;16.13;5.15;;;10.90;99.90;;;;;;5089391;28;20709;-46
2023/12/24 10:06:07;;;;;;;18.25;5.13;;;10.90;99.90;;;;;;5092353;28;20105;-46
2023/12/24 10:08:36;;;;;;;14.93;5.70;;;10.90;99.90;;;;;;5089862;28;20048;-47
2023/12/24 10:11:15;;;;;;;16.05;6.05;;;10.90;99.90;;;;;;5088283;28;20106;-46
2023/12/24 10:13:41;;;;;;;18.50;6.22;;;10.90;99.90;;;;;;5091520;28;20086;-48
2023/12/24 10:16:09;;;;;;;21.67;6.35;;;10.90;99.90;;;;;;5090931;28;20051;-46
2023/12/24 10:18:35;;;;;;;14.45;5.78;;;11.00;99.90;;;;;;5089444;28;20032;-48
2023/12/24 10:21:08;;;;;;;14.93;6.55;;;10.90;99.90;;;;;;5090908;28;20492;-46
2023/12/24 10:23:34;;;;;;;19.50;6.03;;;11.10;99.90;;;;;;5089673;28;20499;-46
2023/12/24 10:26:08;;;;;;;19.08;6.35;;;11.10;99.90;;;;;;5090423;28;20082;-46
2023/12/24 10:28:46;;;;;;;25.13;6.85;;;11.10;99.90;;;;;;5092243;28;20120;-47
2023/12/24 10:31:12;;;;;;;24.90;6.18;;;11.00;99.90;;;;;;5089458;28;20048;-47
2023/12/24 10:33:39;;;;;;;16.85;5.35;;;11.10;99.90;;;;;;5091251;28;20524;-46
2023/12/24 10:36:06;;;;;;;16.30;6.10;;;11.10;99.90;;;;;;5088077;28;20036;-46
2023/12/24 10:38:32;;;;;;;22.00;6.77;;;11.10;99.90;;;;;;5091947;28;20063;-47
2023/12/24 10:40:58;;;;;;;21.88;5.85;;;11.10;99.90;;;;;;5093289;28;20270;-47
2023/12/24 10:43:24;;;;;;;12.45;4.90;;;11.10;99.90;;;;;;5093000;28;20107;-48
2023/12/24 10:45:50;;;;;;;13.27;5.22;;;11.20;99.90;;;;;;5073702;28;20097;-47
2023/12/24 10:48:15;;;;;;;13.73;5.07;;;11.20;99.90;;;;;;5092339;28;20093;-46
2023/12/24 10:50:41;;;;;;;16.52;5.45;;;11.20;99.90;;;;;;5095332;28;20044;-48
2023/12/24 10:53:07;;;;;;;11.98;5.40;;;11.20;99.90;;;;;;5089442;28;20043;-46
2023/12/24 10:55:34;;;;;;;11.73;5.50;;;11.10;99.90;;;;;;5088264;28;20040;-46
2023/12/24 10:58:27;;;;;;;12.90;5.40;;;11.20;99.90;;;;;;5090987;28;20501;-47
2023/12/24 11:00:53;;;;;;;14.45;5.95;;;11.30;99.90;;;;;;5090231;28;20054;-46
2023/12/24 11:03:44;;;;;;;20.90;6.47;;;11.20;99.90;;;;;;5091916;28;20458;-47
2023/12/24 11:06:10;;;;;;;18.30;6.07;;;11.20;99.90;;;;;;5090571;28;20032;-47
2023/12/24 11:08:36;;;;;;;19.90;6.72;;;11.40;99.90;;;;;;5090426;28;20075;-46
2023/12/24 11:11:10;;;;;;;20.02;6.57;;;11.30;99.90;;;;;;5091181;28;20409;-47
2023/12/24 11:13:37;;;;;;;20.50;6.70;;;11.30;99.90;;;;;;5088406;28;20067;-46
2023/12/24 11:16:09;;;;;;;21.20;6.53;;;11.30;99.90;;;;;;5091648;28;20090;-46
2023/12/24 11:18:49;;;;;;;23.35;6.95;;;11.40;99.90;;;;;;5088950;28;20044;-47
2023/12/24 11:21:22;;;;;;;16.92;6.32;;;11.40;99.90;;;;;;5088469;28;20559;-47
2023/12/24 11:24:19;;;;;;;18.17;6.35;;;11.50;99.90;;;;;;5087808;28;20040;-47
2023/12/24 11:26:50;;;;;;;20.30;6.90;;;11.40;99.90;;;;;;5087077;28;20040;-47
2023/12/24 11:29:47;;;;;;;21.77;7.35;;;11.40;99.90;;;;;;5089507;28;20047;-47
2023/12/24 11:32:25;;;;;;;22.88;7.07;;;11.50;99.90;;;;;;5069022;28;20185;-46
2023/12/24 11:34:51;;;;;;;;;;;11.50;99.90;;;;;;5088433;28;20040;-47
2023/12/24 11:37:30;;;;;;;21.45;6.18;;;11.60;99.90;;;;;;5089933;28;19950;-47
2023/12/24 11:40:12;;;;;;;18.80;6.38;;;11.50;99.90;;;;;;5088434;28;20121;-47
2023/12/24 11:42:42;;;;;;;24.58;6.15;;;11.60;99.90;;;;;;5071033;28;20044;-47
2023/12/24 11:45:16;;;;;;;21.02;6.50;;;11.60;99.90;;;;;;5087417;28;20044;-46
2023/12/24 11:47:42;;;;;;;19.13;5.78;;;11.50;99.90;;;;;;5088220;28;20040;-47
2023/12/24 11:50:10;;;;;;;16.63;6.07;;;11.50;99.90;;;;;;5089691;28;20153;-46
2023/12/24 11:52:41;;;;;;;17.25;6.00;;;11.50;99.90;;;;;;5089759;28;20565;-46
2023/12/24 11:55:07;;;;;;;23.88;6.32;;;11.50;99.90;;;;;;5090213;28;20047;-47
2023/12/24 11:57:32;;;;;;;17.77;6.00;;;11.60;99.90;;;;;;5089194;28;20036;-47
2023/12/24 11:59:59;;;;;;;16.38;5.70;;;11.60;99.90;;;;;;5088678;28;20136;-47
2023/12/24 12:02:25;;;;;;;12.85;5.18;;;11.60;99.90;;;;;;5089399;28;20044;-46
2023/12/24 12:04:50;;;;;;;16.65;5.85;;;11.60;99.90;;;;;;5072325;28;20512;-46
2023/12/24 12:07:16;;;;;;;15.20;5.38;;;11.50;99.90;;;;;;5089221;28;20504;-47
2023/12/24 12:09:41;;;;;;;17.38;6.05;;;11.60;99.90;;;;;;5089566;28;20036;-47
2023/12/24 12:12:07;;;;;;;15.90;5.15;;;11.50;99.90;;;;;;5089417;28;20058;-46
2023/12/24 12:14:33;;;;;;;18.85;5.28;;;11.50;99.90;;;;;;5088143;28;20044;-46
2023/12/24 12:16:59;;;;;;;15.80;4.97;;;11.50;99.90;;;;;;5089107;28;20119;-47
2023/12/24 12:19:24;;;;;;;19.42;5.13;;;11.60;99.90;;;;;;5094739;28;20040;-46
2023/12/24 12:21:50;;;;;;;17.85;4.63;;;11.60;99.90;;;;;;5095093;28;20040;-47
2023/12/24 12:24:15;;;;;;;17.65;5.30;;;11.70;99.90;;;;;;5091161;28;20082;-47
2023/12/24 12:26:41;;;;;;;19.05;4.88;;;11.70;99.90;;;;;;5091391;28;20071;-47
2023/12/24 12:29:07;;;;;;;17.70;4.88;;;11.70;99.90;;;;;;5090672;28;20109;-46
2023/12/24 12:31:32;;;;;;;16.50;4.60;;;11.70;99.90;;;;;;5092981;28;20054;-47
2023/12/24 12:33:58;;;;;;;16.88;4.18;;;11.60;99.90;;;;;;5092719;28;20036;-47
2023/12/24 12:36:23;;;;;;;19.80;5.00;;;11.60;99.90;;;;;;5091215;28;20040;-47
2023/12/24 12:38:49;;;;;;;15.05;4.40;;;11.70;99.90;;;;;;5091044;28;20098;-46
2023/12/24 12:41:14;;;;;;;10.60;3.30;;;11.70;99.90;;;;;;5089613;28;20075;-46
2023/12/24 12:43:40;;;;;;;10.57;2.90;;;11.70;99.90;;;;;;5094244;28;20131;-47
2023/12/24 12:46:06;;;;;;;8.93;2.85;;;11.80;99.90;;;;;;5095187;28;20085;-46
2023/12/24 12:48:31;;;;;;;10.52;3.28;;;11.80;99.90;;;;;;5090697;28;20460;-46
2023/12/24 12:50:57;;;;;;;8.18;2.72;;;11.80;99.90;;;;;;5089354;28;20124;-46